Time;durP1;ratioP1;P1;durP2;ratioP2;P2;SDS_P1;SDS_P2;PMS_P1;PMS_P2;Temp;Humidity;BMP_temperature;BMP_pressure;BME280_temperature;BME280_humidity;BME280_pressure;Samples;Min_cycle;Max_cycle;Signal;HPM_P1;HPM_P2
2022/07/15 00:00:11;;;;;;;8.30;3.10;;;;;;;13.41;94.04;101720.81;5014064;28;20439;-44
2022/07/15 00:02:39;;;;;;;10.07;3.43;;;;;;;13.45;93.48;101719.38;5013023;28;20476;-45
2022/07/15 00:05:08;;;;;;;6.73;3.20;;;;;;;13.42;92.97;101720.59;5014044;28;20492;-45
2022/07/15 00:07:38;;;;;;;6.13;3.83;;;;;;;13.44;91.33;101718.56;5013997;28;20858;-49
2022/07/15 00:10:18;;;;;;;5.87;4.50;;;;;;;13.42;89.22;101725.97;5013761;28;20440;-47
2022/07/15 00:12:48;;;;;;;5.00;3.27;;;;;;;13.46;91.10;101729.09;5012971;28;20982;-44
2022/07/15 00:15:18;;;;;;;5.23;3.60;;;;;;;13.51;92.54;101726.66;5014034;28;20417;-45
2022/07/15 00:17:46;;;;;;;7.60;3.30;;;;;;;13.53;92.99;101733.47;5013506;28;20440;-46
2022/07/15 00:20:15;;;;;;;4.97;3.30;;;;;;;13.55;91.77;101728.78;5013734;28;20814;-45
2022/07/15 00:22:45;;;;;;;11.00;3.90;;;;;;;13.52;91.67;101726.47;5012842;28;20548;-47
2022/07/15 00:25:14;;;;;;;4.63;3.30;;;;;;;13.48;91.59;101724.34;5013550;28;20559;-48
2022/07/15 00:27:52;;;;;;;6.10;3.27;;;;;;;13.48;90.75;101721.69;5013404;28;20449;-45
2022/07/15 00:30:20;;;;;;;5.13;3.60;;;;;;;13.44;89.97;101725.78;5013664;28;20517;-48
2022/07/15 00:32:48;;;;;;;3.20;2.53;;;;;;;13.45;91.66;101706.00;5012735;28;20555;-45
2022/07/15 00:35:16;;;;;;;5.87;3.43;;;;;;;13.44;90.94;101713.19;5013376;28;20504;-46
2022/07/15 00:37:45;;;;;;;4.90;3.03;;;;;;;13.46;91.75;101710.34;5013266;28;20447;-49
2022/07/15 00:40:13;;;;;;;6.40;3.40;;;;;;;13.50;92.87;101704.38;5013117;28;20441;-46
2022/07/15 00:42:47;;;;;;;4.27;2.70;;;;;;;13.49;91.26;101704.59;5012576;28;20464;-50
2022/07/15 00:45:16;;;;;;;7.63;3.90;;;;;;;13.55;91.78;101703.81;5013244;28;20483;-50
2022/07/15 00:47:44;;;;;;;4.40;2.80;;;;;;;13.57;91.46;101693.72;5013023;28;20951;-45
2022/07/15 00:50:12;;;;;;;4.57;3.17;;;;;;;13.59;90.48;101695.19;5013078;28;20806;-47
2022/07/15 00:52:43;;;;;;;4.40;2.97;;;;;;;13.60;89.50;101699.53;5012295;28;20842;-48
2022/07/15 00:55:13;;;;;;;5.40;2.87;;;;;;;13.60;89.16;101698.72;5013274;28;20504;-47
2022/07/15 00:57:43;;;;;;;4.70;3.27;;;;;;;13.67;89.06;101699.59;5013319;28;20532;-48
2022/07/15 01:00:12;;;;;;;3.50;3.20;;;;;;;13.61;87.43;101703.06;5012976;28;20532;-45
2022/07/15 01:02:42;;;;;;;3.70;3.40;;;;;;;13.59;87.00;101697.88;5012063;28;21002;-44
2022/07/15 01:05:11;;;;;;;8.10;2.83;;;;;;;13.62;89.96;101699.38;5012615;28;20503;-45
2022/07/15 01:07:39;;;;;;;3.60;3.17;;;;;;;13.55;89.53;101706.50;5012955;28;20437;-45
2022/07/15 01:10:07;;;;;;;5.93;3.30;;;;;;;13.58;89.96;101704.28;5012817;28;20576;-46
2022/07/15 01:12:38;;;;;;;7.70;3.27;;;;;;;13.58;90.09;101709.63;5011903;28;20472;-48
2022/07/15 01:15:06;;;;;;;5.23;3.23;;;;;;;13.57;88.92;101707.13;5012705;28;20504;-49
2022/07/15 01:17:34;;;;;;;5.53;3.80;;;;;;;13.57;88.27;101707.97;5012515;28;20437;-44
2022/07/15 01:20:07;;;;;;;9.83;3.17;;;;;;;13.61;88.73;101711.94;5012970;28;20783;-48
2022/07/15 01:22:36;;;;;;;3.63;3.33;;;;;;;13.64;88.51;101711.53;5011820;28;20539;-46
2022/07/15 01:25:04;;;;;;;3.83;3.00;;;;;;;13.69;88.13;101702.91;5012301;28;21020;-45
2022/07/15 01:27:32;;;;;;;4.70;2.80;;;;;;;13.70;87.83;101708.09;5012494;28;20946;-45
2022/07/15 01:30:00;;;;;;;6.10;2.80;;;;;;;13.72;87.67;101705.19;5012315;28;20524;-46
2022/07/15 01:32:28;;;;;;;6.53;3.63;;;;;;;13.72;87.64;101698.00;5011573;28;20460;-44
2022/07/15 01:34:56;;;;;;;5.57;3.07;;;;;;;13.76;88.29;101707.31;5011909;28;20425;-47
2022/07/15 01:37:23;;;;;;;7.40;3.70;;;;;;;13.77;89.14;101708.13;5012284;28;20451;-47
2022/07/15 01:39:52;;;;;;;4.47;3.07;;;;;;;13.74;88.52;101703.97;5012218;28;21090;-44
2022/07/15 01:42:20;;;;;;;3.33;3.10;;;;;;;13.68;89.49;101704.75;5011677;28;20842;-47
2022/07/15 01:44:48;;;;;;;5.87;3.40;;;;;;;13.66;88.62;101709.50;5012004;28;20443;-45
2022/07/15 01:47:16;;;;;;;3.00;2.80;;;;;;;13.69;88.61;101713.63;5012394;28;20443;-46
2022/07/15 01:49:43;;;;;;;9.03;4.30;;;;;;;13.68;88.23;101711.97;5012336;28;20437;-47
2022/07/15 01:52:12;;;;;;;4.97;3.13;;;;;;;13.66;86.63;101716.69;5011426;28;20469;-45
2022/07/15 01:54:39;;;;;;;4.20;3.03;;;;;;;13.70;86.44;101715.31;5012156;28;20433;-44
2022/07/15 01:57:08;;;;;;;6.43;2.90;;;;;;;13.71;87.54;101708.91;5011941;28;20496;-45
2022/07/15 01:59:36;;;;;;;7.43;3.03;;;;;;;13.68;88.42;101718.16;5012240;28;20519;-46
2022/07/15 02:02:04;;;;;;;3.60;2.80;;;;;;;13.67;86.62;101715.69;5011319;28;20504;-46
2022/07/15 02:04:31;;;;;;;4.37;3.33;;;;;;;13.63;86.23;101712.56;5012148;28;20444;-48
2022/07/15 02:06:59;;;;;;;3.90;3.60;;;;;;;13.69;85.37;101719.00;5011986;28;20564;-44
2022/07/15 02:09:27;;;;;;;4.90;2.80;;;;;;;13.71;86.48;101720.44;5011915;28;20957;-49
2022/07/15 02:11:55;;;;;;;4.47;3.27;;;;;;;13.69;86.35;101719.00;5011261;28;20548;-48
2022/07/15 02:14:24;;;;;;;8.23;3.17;;;;;;;13.66;86.57;101722.06;5011708;28;20433;-44
2022/07/15 02:16:52;;;;;;;4.70;3.30;;;;;;;13.61;82.93;101721.81;5012056;28;20825;-49
2022/07/15 02:19:19;;;;;;;4.93;3.30;;;;;;;13.66;85.98;101717.53;5011967;28;20439;-47
2022/07/15 02:21:47;;;;;;;4.87;2.97;;;;;;;13.64;85.54;101724.94;5011394;28;20469;-47
2022/07/15 02:24:15;;;;;;;4.40;3.23;;;;;;;13.54;83.10;101721.75;5011440;28;20429;-46
2022/07/15 02:26:44;;;;;;;6.63;2.93;;;;;;;13.51;83.22;101724.81;5011908;28;20472;-47
2022/07/15 02:29:12;;;;;;;8.83;3.40;;;;;;;13.51;86.60;101727.50;5011927;28;20784;-47
2022/07/15 02:31:42;;;;;;;4.20;2.67;;;;;;;13.53;85.13;101727.31;5048176;23;20490;-45
2022/07/15 02:34:10;;;;;;;3.47;2.73;;;;;;;13.49;84.29;101732.22;5051164;28;20879;-45
2022/07/15 02:36:38;;;;;;;4.70;2.53;;;;;;;13.51;85.19;101734.69;5051164;28;20443;-48
2022/07/15 02:39:05;;;;;;;4.13;2.70;;;;;;;13.51;83.64;101723.97;5051171;28;20437;-48
2022/07/15 02:41:33;;;;;;;3.10;2.80;;;;;;;13.48;83.08;101725.19;5050869;28;20463;-45
2022/07/15 02:44:02;;;;;;;4.80;2.80;;;;;;;13.48;83.29;101741.28;5051101;28;20485;-45
2022/07/15 02:46:29;;;;;;;5.13;2.83;;;;;;;13.49;84.15;101732.22;5053089;28;20474;-48
2022/07/15 02:48:58;;;;;;;2.60;2.40;;;;;;;13.47;83.48;101733.44;5055413;28;20431;-44
2022/07/15 02:51:26;;;;;;;8.50;2.70;;;;;;;13.45;83.51;101740.81;5054708;28;20473;-44
2022/07/15 02:53:54;;;;;;;4.77;2.83;;;;;;;13.50;85.72;101741.91;5054693;28;20791;-44
2022/07/15 02:56:22;;;;;;;4.20;2.70;;;;;;;13.45;84.32;101747.00;5055088;28;20431;-46
2022/07/15 02:58:49;;;;;;;6.10;3.33;;;;;;;13.41;84.49;101750.28;5054928;28;20438;-46
2022/07/15 03:01:17;;;;;;;3.23;2.73;;;;;;;13.41;85.05;101744.91;5054264;28;20470;-45
2022/07/15 03:03:46;;;;;;;3.93;3.10;;;;;;;13.38;84.27;101753.34;5054473;28;20453;-49
2022/07/15 03:06:15;;;;;;;7.23;3.37;;;;;;;13.35;84.16;101743.00;5054566;28;20475;-46
2022/07/15 03:08:42;;;;;;;4.37;3.63;;;;;;;13.30;87.22;101755.09;5054831;28;20530;-47
2022/07/15 03:11:10;;;;;;;6.93;3.67;;;;;;;13.27;91.60;101754.66;5054165;28;20836;-45
2022/07/15 03:13:38;;;;;;;4.43;3.23;;;;;;;13.22;93.06;101757.06;5054373;28;20445;-46
2022/07/15 03:16:06;;;;;;;6.30;3.10;;;;;;;13.24;96.60;101755.88;5054461;28;20522;-50
2022/07/15 03:18:34;;;;;;;4.07;2.93;;;;;;;13.15;94.68;101748.13;5054470;28;20453;-46
2022/07/15 03:21:03;;;;;;;4.20;3.03;;;;;;;13.16;94.82;101747.94;5054013;28;20512;-46
2022/07/15 03:23:32;;;;;;;6.07;3.13;;;;;;;13.24;95.18;101753.19;5054323;28;20442;-45
2022/07/15 03:26:00;;;;;;;5.23;3.20;;;;;;;13.24;94.04;101744.31;5054385;28;20475;-46
2022/07/15 03:28:27;;;;;;;10.07;3.77;;;;;;;13.34;94.03;101752.88;5054325;28;20468;-44
2022/07/15 03:30:55;;;;;;;4.27;3.87;;;;;;;13.36;94.31;101750.84;5053465;28;20469;-44
2022/07/15 03:33:23;;;;;;;3.90;3.13;;;;;;;13.45;93.32;101752.38;5046313;28;20428;-46
2022/07/15 03:35:50;;;;;;;4.57;3.40;;;;;;;13.52;91.59;101757.81;5045933;28;20498;-45
2022/07/15 03:38:18;;;;;;;3.23;2.87;;;;;;;13.53;89.56;101757.59;5054241;28;20522;-50
2022/07/15 03:40:47;;;;;;;4.50;3.20;;;;;;;13.58;89.44;101763.22;5053665;28;20451;-46
2022/07/15 03:43:15;;;;;;;4.00;3.70;;;;;;;13.68;91.66;101760.22;5053807;28;20832;-44
2022/07/15 03:45:42;;;;;;;4.57;3.50;;;;;;;13.71;89.95;101755.31;5054109;28;20514;-44
2022/07/15 03:48:10;;;;;;;5.63;3.70;;;;;;;13.65;88.17;101753.38;5054082;28;20494;-46
2022/07/15 03:50:37;;;;;;;8.60;3.50;;;;;;;13.68;88.62;101746.81;5053728;28;20451;-46
2022/07/15 03:53:05;;;;;;;8.20;3.60;;;;;;;13.76;90.12;101760.09;5053172;28;20824;-44
2022/07/15 03:55:33;;;;;;;5.90;3.73;;;;;;;13.78;88.32;101761.56;5053881;28;20432;-43
2022/07/15 03:58:02;;;;;;;5.47;2.87;;;;;;;13.82;88.14;101756.66;5053170;28;20872;-47
2022/07/15 04:00:29;;;;;;;6.50;3.27;;;;;;;13.88;89.40;101761.25;5053785;28;20442;-45
2022/07/15 04:02:57;;;;;;;7.50;3.47;;;;;;;14.00;89.37;101761.53;5052954;28;20571;-47
2022/07/15 04:05:25;;;;;;;4.00;3.37;;;;;;;14.07;86.46;101762.41;5053644;28;20463;-45
2022/07/15 04:07:52;;;;;;;6.47;3.70;;;;;;;14.18;85.51;101757.34;5053606;28;20472;-45
2022/07/15 04:10:20;;;;;;;5.37;3.40;;;;;;;14.35;86.58;101760.59;5053301;28;20443;-44
2022/07/15 04:12:48;;;;;;;4.03;3.10;;;;;;;14.33;84.88;101765.34;5052772;28;20546;-45
2022/07/15 04:15:17;;;;;;;8.10;4.90;;;;;;;14.35;86.64;101772.16;5053577;28;20435;-47
2022/07/15 04:17:45;;;;;;;3.57;3.27;;;;;;;14.40;87.95;101772.38;5053478;28;20565;-46
2022/07/15 04:20:13;;;;;;;7.53;3.47;;;;;;;14.36;86.71;101776.50;5053164;28;20481;-48
2022/07/15 04:22:40;;;;;;;8.63;4.20;;;;;;;14.42;86.04;101772.22;5052595;28;20463;-44
2022/07/15 04:25:09;;;;;;;4.93;3.40;;;;;;;14.53;86.31;101768.97;5053133;28;20804;-44
2022/07/15 04:27:37;;;;;;;7.90;4.03;;;;;;;14.55;85.06;101772.25;5053366;28;20479;-45
2022/07/15 04:30:06;;;;;;;6.33;3.57;;;;;;;14.58;84.39;101773.72;5053319;28;20431;-46
2022/07/15 04:32:36;;;;;;;8.30;3.47;;;;;;;14.64;83.59;101775.63;5045541;28;20468;-45
2022/07/15 04:35:04;;;;;;;8.17;3.70;;;;;;;14.68;83.44;101776.88;5044429;28;20526;-44
2022/07/15 04:37:32;;;;;;;6.57;3.63;;;;;;;14.56;81.61;101779.31;5052897;28;20439;-44
2022/07/15 04:39:59;;;;;;;3.57;3.27;;;;;;;14.56;83.34;101786.53;5052935;28;20431;-44
2022/07/15 04:42:27;;;;;;;4.03;3.60;;;;;;;14.56;81.21;101786.53;5052253;28;20471;-46
2022/07/15 04:44:55;;;;;;;3.60;3.37;;;;;;;14.46;79.49;101788.72;5052793;28;20962;-45
2022/07/15 04:47:22;;;;;;;8.10;3.37;;;;;;;14.40;76.84;101788.50;5052784;28;20570;-48
2022/07/15 04:52:36;;;;;;;6.50;3.40;;;;;;;14.52;75.65;101791.44;5052066;28;20467;-46
2022/07/15 04:55:05;;;;;;;4.90;3.80;;;;;;;14.50;75.70;101781.94;5052751;28;20484;-44
2022/07/15 04:57:32;;;;;;;4.80;3.20;;;;;;;14.60;74.84;101787.81;5052685;28;20427;-47
2022/07/15 05:00:00;;;;;;;7.57;4.03;;;;;;;14.68;73.03;101790.31;5052660;28;20828;-47
2022/07/15 05:02:28;;;;;;;3.97;3.60;;;;;;;14.69;72.65;101792.81;5051644;28;20483;-45
2022/07/15 05:04:57;;;;;;;4.17;3.30;;;;;;;14.76;70.12;101799.03;5052649;28;20435;-44
2022/07/15 05:07:24;;;;;;;5.07;3.70;;;;;;;14.85;71.47;101797.00;5052241;28;20474;-47
2022/07/15 05:09:52;;;;;;;5.73;3.80;;;;;;;14.91;70.43;101794.38;5051692;28;20530;-49
2022/07/15 05:12:20;;;;;;;6.33;4.10;;;;;;;14.93;69.56;101797.66;5051486;28;20469;-47
2022/07/15 05:14:47;;;;;;;4.83;4.43;;;;;;;15.14;69.91;101801.28;5052386;28;20525;-44
2022/07/15 05:17:15;;;;;;;4.17;3.73;;;;;;;15.21;70.06;101804.81;5052084;28;20431;-45
2022/07/15 05:19:42;;;;;;;7.63;3.50;;;;;;;15.33;69.05;101805.88;5052174;28;20427;-46
2022/07/15 05:22:11;;;;;;;4.23;3.93;;;;;;;15.44;68.54;101803.44;5051501;28;20471;-46
2022/07/15 05:24:39;;;;;;;5.47;3.93;;;;;;;15.53;68.08;101798.75;5052218;28;20808;-45
2022/07/15 05:27:07;;;;;;;4.13;3.80;;;;;;;15.64;67.82;101800.84;5052105;28;20982;-46
2022/07/15 05:29:34;;;;;;;5.53;4.03;;;;;;;15.73;66.72;101796.94;5052105;28;20520;-49
2022/07/15 05:32:02;;;;;;;4.80;4.40;;;;;;;15.74;66.87;101813.91;5048816;28;20479;-46
2022/07/15 05:34:30;;;;;;;7.80;5.07;;;;;;;15.75;65.55;101808.31;5040225;28;20857;-45
2022/07/15 05:36:58;;;;;;;11.07;4.93;;;;;;;15.74;65.18;101813.91;5050733;28;20518;-50
2022/07/15 05:39:27;;;;;;;5.43;5.10;;;;;;;15.72;63.78;101818.63;5051924;28;20431;-46
2022/07/15 05:41:56;;;;;;;5.73;5.13;;;;;;;15.76;64.92;101818.03;5051414;28;20463;-44
2022/07/15 05:44:24;;;;;;;5.67;4.90;;;;;;;15.95;64.26;101817.22;5051569;28;20800;-44
2022/07/15 05:46:52;;;;;;;6.17;5.70;;;;;;;16.00;63.04;101822.84;5051879;28;20430;-45
2022/07/15 05:49:20;;;;;;;5.50;5.00;;;;;;;16.28;63.21;101816.41;5051869;28;20538;-44
2022/07/15 05:51:48;;;;;;;5.40;5.03;;;;;;;16.20;61.08;101822.00;5051300;28;20491;-44
2022/07/15 05:54:16;;;;;;;5.33;4.73;;;;;;;16.17;63.92;101825.94;5051516;28;20532;-43
2022/07/15 05:56:45;;;;;;;4.73;4.40;;;;;;;16.03;63.20;101827.81;5051592;28;20891;-44
2022/07/15 05:59:13;;;;;;;5.53;4.67;;;;;;;16.03;63.88;101830.50;5051829;28;20519;-44
2022/07/15 06:01:40;;;;;;;5.73;4.20;;;;;;;15.86;61.94;101834.59;5050045;28;20467;-44
2022/07/15 06:04:08;;;;;;;4.37;4.17;;;;;;;15.68;66.12;101838.91;5051356;28;20435;-47
2022/07/15 06:06:36;;;;;;;5.27;4.70;;;;;;;15.46;65.77;101841.72;5051525;28;20450;-44
2022/07/15 06:09:03;;;;;;;5.10;4.70;;;;;;;15.35;68.05;101858.41;5035843;28;20522;-45
2022/07/15 06:11:31;;;;;;;4.70;4.40;;;;;;;15.18;69.82;101858.94;5030545;28;20538;-47
2022/07/15 06:14:01;;;;;;;5.10;4.30;;;;;;;15.01;69.31;101863.00;5031258;28;20443;-47
2022/07/15 06:16:29;;;;;;;4.87;4.50;;;;;;;14.92;67.79;101859.66;5031451;28;20447;-45
2022/07/15 06:18:57;;;;;;;5.27;4.87;;;;;;;14.98;69.47;101866.09;5030875;28;20472;-44
2022/07/15 06:21:24;;;;;;;5.50;5.10;;;;;;;15.16;71.64;101863.72;5034653;28;20521;-44
2022/07/15 06:23:52;;;;;;;5.27;4.87;;;;;;;15.30;69.76;101862.72;5033696;28;20539;-44
2022/07/15 06:26:19;;;;;;;4.97;4.77;;;;;;;15.48;71.69;101865.72;5035636;28;20439;-45
2022/07/15 06:28:47;;;;;;;4.60;4.20;;;;;;;15.61;70.04;101859.56;5035354;28;20482;-48
2022/07/15 06:31:17;;;;;;;5.00;4.70;;;;;;;15.89;68.21;101852.19;5034900;28;20463;-48
2022/07/15 06:33:45;;;;;;;6.67;4.70;;;;;;;16.25;67.44;101857.19;5035426;28;20530;-44
2022/07/15 06:36:13;;;;;;;6.90;4.30;;;;;;;16.56;64.52;101852.03;5047588;28;21026;-47
2022/07/15 06:38:41;;;;;;;4.47;4.10;;;;;;;16.64;63.33;101854.50;5055319;28;20489;-45
2022/07/15 06:41:08;;;;;;;4.43;4.23;;;;;;;17.02;62.26;101860.84;5054677;28;20463;-46
2022/07/15 06:43:36;;;;;;;4.70;4.40;;;;;;;17.30;62.90;101854.31;5054969;28;20442;-44
2022/07/15 06:46:04;;;;;;;4.60;4.03;;;;;;;17.43;60.86;101852.41;5053434;28;20435;-45
2022/07/15 06:48:33;;;;;;;4.73;4.20;;;;;;;17.24;61.10;101860.56;5043187;28;20468;-46
2022/07/15 06:51:00;;;;;;;4.60;4.20;;;;;;;17.21;61.33;101867.22;5053409;28;20455;-44
2022/07/15 06:53:28;;;;;;;4.60;4.20;;;;;;;17.28;59.03;101869.91;5054629;28;20435;-45
2022/07/15 06:55:55;;;;;;;4.87;4.30;;;;;;;17.61;60.64;101873.31;5055039;28;20804;-46
2022/07/15 06:58:23;;;;;;;8.27;4.30;;;;;;;17.36;58.01;101867.78;5054928;28;20427;-45
2022/07/15 07:00:51;;;;;;;4.03;3.73;;;;;;;17.52;61.25;101866.47;5054197;28;20461;-45
2022/07/15 07:03:19;;;;;;;6.90;4.43;;;;;;;17.29;61.58;101871.56;5054506;28;20435;-45
2022/07/15 07:06:08;;;;;;;5.10;3.90;;;;;;;17.11;58.96;101881.13;5054932;28;20438;-48
2022/07/15 07:08:35;;;;;;;4.43;4.13;;;;;;;16.81;60.95;101871.06;5054494;28;20528;-46
2022/07/15 07:11:03;;;;;;;5.23;4.60;;;;;;;16.76;62.46;101873.53;5054041;28;21011;-44
2022/07/15 07:13:31;;;;;;;4.60;4.30;;;;;;;16.66;60.04;101870.47;5054264;28;20999;-44
2022/07/15 07:15:59;;;;;;;8.13;3.90;;;;;;;17.06;60.21;101875.56;5054361;28;20526;-46
2022/07/15 07:18:27;;;;;;;4.60;4.20;;;;;;;17.38;60.38;101878.38;5054771;28;20789;-44
2022/07/15 07:20:56;;;;;;;5.50;4.00;;;;;;;17.37;59.16;101877.53;5053937;28;20497;-46
2022/07/15 07:23:26;;;;;;;4.13;3.50;;;;;;;17.74;58.05;101872.41;5053353;28;20995;-46
2022/07/15 07:25:54;;;;;;;6.00;4.43;;;;;;;18.12;58.76;101865.09;5054319;28;20793;-44
2022/07/15 07:28:22;;;;;;;3.00;2.77;;;;;;;18.03;55.34;101864.53;5053877;28;20475;-45
2022/07/15 07:30:52;;;;;;;7.30;3.80;;;;;;;18.14;55.24;101876.50;5053319;28;21043;-45
2022/07/15 07:33:20;;;;;;;3.60;3.40;;;;;;;18.01;55.04;101873.91;5045527;28;20439;-47
2022/07/15 07:35:47;;;;;;;3.73;3.43;;;;;;;17.84;55.24;101865.50;5045591;28;20441;-44
2022/07/15 07:38:15;;;;;;;3.20;3.00;;;;;;;17.86;55.79;101868.78;5054113;28;20431;-46
2022/07/15 07:40:44;;;;;;;3.43;3.13;;;;;;;17.82;57.79;101870.28;5053909;28;20462;-48
2022/07/15 07:43:11;;;;;;;3.90;3.60;;;;;;;17.56;57.89;101870.44;5053423;28;20525;-47
2022/07/15 07:45:39;;;;;;;3.33;2.87;;;;;;;17.86;56.09;101870.69;5054114;28;20525;-48
2022/07/15 07:48:07;;;;;;;3.90;3.43;;;;;;;17.78;57.69;101873.63;5053785;28;20474;-47
2022/07/15 07:50:34;;;;;;;3.93;3.17;;;;;;;17.59;58.39;101878.09;5053819;28;20539;-46
2022/07/15 07:53:02;;;;;;;3.20;3.00;;;;;;;17.44;56.38;101878.31;5053175;28;20467;-45
2022/07/15 07:55:30;;;;;;;7.60;4.00;;;;;;;17.52;58.35;101878.09;5053637;28;20487;-48
2022/07/15 07:58:00;;;;;;;3.83;3.13;;;;;;;17.82;58.04;101874.84;5053964;28;20526;-47
2022/07/15 08:00:29;;;;;;;3.57;3.23;;;;;;;17.98;58.36;101871.66;5053701;28;20431;-45
2022/07/15 08:02:58;;;;;;;3.73;3.43;;;;;;;18.12;57.47;101865.09;5052961;28;20553;-46
2022/07/15 08:05:27;;;;;;;3.87;2.87;;;;;;;18.28;56.28;101869.16;5053685;28;20431;-45
2022/07/15 08:08:07;;;;;;;3.87;3.30;;;;;;;18.09;56.71;101879.88;5053519;28;20434;-46
2022/07/15 08:10:35;;;;;;;3.50;3.20;;;;;;;18.33;54.96;101863.91;5053648;28;20533;-47
2022/07/15 08:13:04;;;;;;;3.50;3.30;;;;;;;18.42;57.68;101868.81;5052730;28;20891;-45
2022/07/15 08:15:31;;;;;;;6.80;3.30;;;;;;;18.50;57.63;101855.03;5053562;28;20537;-44
2022/07/15 08:18:01;;;;;;;3.20;2.97;;;;;;;18.33;57.85;101863.91;5053552;28;20435;-46
2022/07/15 08:20:29;;;;;;;3.70;3.40;;;;;;;18.72;57.63;101855.47;5053088;28;20435;-43
2022/07/15 08:22:59;;;;;;;3.90;3.10;;;;;;;18.92;54.01;101853.38;5052620;28;20486;-45
2022/07/15 08:25:27;;;;;;;5.73;3.57;;;;;;;19.32;54.85;101849.16;5053135;28;20431;-43
2022/07/15 08:27:56;;;;;;;6.30;4.17;;;;;;;19.29;55.32;101854.22;5053143;28;20526;-44
2022/07/15 08:30:25;;;;;;;4.13;3.07;;;;;;;19.87;54.10;101859.88;5052867;28;20480;-46
2022/07/15 08:32:53;;;;;;;2.53;2.33;;;;;;;20.23;51.72;101862.44;5044510;28;20460;-45
2022/07/15 08:35:21;;;;;;;3.23;2.90;;;;;;;19.82;47.34;101854.34;5044518;28;20441;-44
2022/07/15 08:37:49;;;;;;;3.07;2.87;;;;;;;19.09;52.58;101862.53;5053171;28;20529;-45
2022/07/15 08:40:17;;;;;;;2.83;2.63;;;;;;;19.33;51.22;101861.63;5053022;28;20423;-45
2022/07/15 08:42:47;;;;;;;3.97;3.17;;;;;;;19.23;50.66;101860.53;5052173;28;20987;-44
2022/07/15 08:45:17;;;;;;;3.10;2.90;;;;;;;18.70;53.83;101861.09;5076776;23;20927;-45
2022/07/15 08:47:47;;;;;;;2.60;2.40;;;;;;;18.46;53.46;101869.16;5040215;28;20538;-47
2022/07/15 08:50:22;;;;;;;6.13;3.47;;;;;;;18.44;53.99;101865.88;5052688;28;21005;-48
2022/07/15 08:52:51;;;;;;;2.80;2.50;;;;;;;18.71;52.67;101851.09;5052028;28;20466;-44
2022/07/15 08:55:20;;;;;;;5.53;2.70;;;;;;;18.82;51.07;101863.06;5052656;28;20438;-44
2022/07/15 08:57:48;;;;;;;3.50;3.20;;;;;;;19.37;52.36;101858.47;5052551;28;20442;-46
2022/07/15 09:00:16;;;;;;;3.33;3.03;;;;;;;19.73;52.80;101863.84;5052378;28;20788;-48
2022/07/15 09:02:46;;;;;;;2.80;2.70;;;;;;;19.48;51.70;101865.84;5035158;28;20498;-51
2022/07/15 09:05:27;;;;;;;2.80;2.70;;;;;;;19.37;53.00;101863.88;5032545;28;20435;-46
2022/07/15 09:07:58;;;;;;;3.00;2.80;;;;;;;19.83;50.66;101869.53;5032604;28;20439;-48
2022/07/15 09:10:41;;;;;;;2.43;2.33;;;;;;;19.62;49.57;101859.22;5032317;28;20562;-47
2022/07/15 09:13:10;;;;;;;4.13;2.87;;;;;;;20.24;50.17;101860.56;5031292;28;21169;-44
2022/07/15 09:15:40;;;;;;;2.50;2.40;;;;;;;19.91;48.48;101873.78;5021043;28;20536;-51
2022/07/15 09:18:12;;;;;;;4.10;2.60;;;;;;;19.48;51.71;101871.25;5004649;28;20858;-43
2022/07/15 09:20:42;;;;;;;4.57;3.10;;;;;;;19.07;52.67;101866.53;5012545;28;20918;-50
2022/07/15 09:23:11;;;;;;;2.83;2.40;;;;;;;18.67;52.39;101879.59;5011985;28;20445;-46
2022/07/15 09:25:39;;;;;;;3.07;2.87;;;;;;;19.04;53.64;101875.09;5012465;28;20543;-49
2022/07/15 09:28:08;;;;;;;2.67;2.57;;;;;;;18.84;52.73;101880.72;5012560;28;20429;-47
2022/07/15 09:33:36;;;;;;;5.30;2.43;;;;;;;18.72;53.71;101874.38;5011875;28;20450;-46
2022/07/15 09:36:13;;;;;;;3.47;3.20;;;;;;;18.50;56.27;101897.44;5012403;28;20444;-49
2022/07/15 09:38:44;;;;;;;2.70;2.60;;;;;;;18.49;55.05;101901.16;5011216;28;20432;-47
2022/07/15 09:41:21;;;;;;;2.80;2.70;;;;;;;17.82;59.56;101915.31;5011831;28;20484;-44
2022/07/15 09:43:53;;;;;;;3.97;3.23;;;;;;;17.51;63.29;101921.44;5011747;28;20428;-48
2022/07/15 09:46:22;;;;;;;2.90;2.80;;;;;;;17.31;60.53;101916.13;5012246;28;20523;-49
2022/07/15 09:48:53;;;;;;;2.97;2.77;;;;;;;17.42;61.13;101914.63;5012091;28;20479;-48
2022/07/15 09:51:22;;;;;;;3.23;3.03;;;;;;;17.45;58.83;101922.28;5019929;28;20459;-48
2022/07/15 09:53:50;;;;;;;3.10;2.90;;;;;;;17.45;60.44;101911.50;5031102;28;20443;-47
2022/07/15 09:56:23;;;;;;;3.30;3.03;;;;;;;18.24;60.13;101920.88;5031218;28;20491;-47
2022/07/15 09:58:52;;;;;;;2.90;2.80;;;;;;;18.14;56.87;101906.19;5031574;28;20436;-45
2022/07/15 10:01:19;;;;;;;3.03;2.83;;;;;;;18.14;57.48;101909.72;5007223;28;20447;-44
2022/07/15 10:03:49;;;;;;;3.50;3.30;;;;;;;18.64;55.61;101893.56;5031184;28;21015;-43
2022/07/15 10:06:20;;;;;;;3.17;2.60;;;;;;;18.95;52.67;101884.53;5030927;28;20464;-50
2022/07/15 10:08:49;;;;;;;4.70;3.00;;;;;;;19.45;52.50;101894.19;5031391;28;20442;-48
2022/07/15 10:11:17;;;;;;;2.60;2.50;;;;;;;19.65;54.03;101896.66;5031201;28;20543;-44
2022/07/15 10:14:01;;;;;;;2.77;2.60;;;;;;;19.73;53.17;101897.16;5031287;28;20432;-46
2022/07/15 10:16:52;;;;;;;2.70;2.50;;;;;;;20.46;52.29;101890.69;5031203;28;20456;-44
2022/07/15 10:19:29;;;;;;;4.37;2.57;;;;;;;20.63;50.75;101894.34;5024484;28;20446;-46
2022/07/15 10:22:08;;;;;;;2.60;2.40;;;;;;;20.43;51.68;101889.22;5030510;28;20992;-45
2022/07/15 10:24:46;;;;;;;4.60;2.60;;;;;;;19.72;52.74;101891.94;5031337;28;20439;-47
2022/07/15 10:27:26;;;;;;;2.60;2.50;;;;;;;19.33;53.96;101894.09;5031461;28;20926;-44
2022/07/15 10:29:54;;;;;;;3.53;2.30;;;;;;;19.06;54.45;101892.72;5031140;28;20479;-46
2022/07/15 10:32:22;;;;;;;2.37;2.27;;;;;;;18.37;55.92;101902.94;5025452;28;21068;-43
2022/07/15 10:34:51;;;;;;;2.20;2.10;;;;;;;17.95;57.75;101897.16;5010714;28;20456;-47
2022/07/15 10:37:20;;;;;;;3.10;2.80;;;;;;;17.92;60.79;101905.69;5011426;28;20460;-50
2022/07/15 10:40:05;;;;;;;2.30;2.20;;;;;;;17.98;59.47;101910.22;5011400;28;20926;-48
2022/07/15 10:42:59;;;;;;;2.67;2.57;;;;;;;18.12;56.70;101901.03;5010732;28;20567;-45
2022/07/15 10:45:26;;;;;;;3.53;2.90;;;;;;;18.31;57.96;101895.72;5011539;28;20775;-45
2022/07/15 10:48:35;;;;;;;3.27;2.77;;;;;;;18.53;51.94;101891.59;5011631;28;20531;-45
2022/07/15 10:51:03;;;;;;;2.53;2.27;;;;;;;18.88;52.74;101891.88;4965176;28;20542;-48
2022/07/15 10:53:32;;;;;;;2.60;2.40;;;;;;;19.33;52.07;101894.09;5011577;28;20865;-44
2022/07/15 10:56:27;;;;;;;2.70;2.50;;;;;;;19.68;50.84;101899.69;5011484;28;20452;-51
2022/07/15 10:59:13;;;;;;;2.50;2.40;;;;;;;19.33;50.88;101904.06;5011461;28;20451;-48
2022/07/15 11:01:42;;;;;;;2.47;2.27;;;;;;;19.01;54.65;101889.06;5011341;28;20476;-48
2022/07/15 11:04:13;;;;;;;2.53;2.43;;;;;;;18.84;54.30;101891.53;5011384;28;20436;-49
2022/07/15 11:07:18;;;;;;;3.00;2.90;;;;;;;18.73;56.79;101903.88;5012132;28;20460;-48
2022/07/15 11:09:50;;;;;;;3.17;2.67;;;;;;;18.27;56.68;101903.41;5015024;28;20444;-44
2022/07/15 11:12:20;;;;;;;3.03;2.83;;;;;;;18.56;56.53;101910.91;5014340;28;20460;-45
2022/07/15 11:14:54;;;;;;;2.87;2.67;;;;;;;18.64;56.84;101907.91;5014972;28;20443;-45
2022/07/15 11:17:25;;;;;;;2.60;2.40;;;;;;;18.74;56.98;101910.09;5014805;28;20492;-45
2022/07/15 11:19:55;;;;;;;3.20;2.93;;;;;;;19.22;55.71;101905.66;5014804;28;20440;-48
2022/07/15 11:22:27;;;;;;;2.93;2.70;;;;;;;19.53;55.41;101914.69;5014269;28;20464;-43
2022/07/15 11:24:57;;;;;;;3.53;3.00;;;;;;;19.83;55.46;101896.59;5014828;28;20433;-47
2022/07/15 11:27:26;;;;;;;6.83;2.70;;;;;;;19.98;53.50;101896.19;5014646;28;20555;-48
2022/07/15 11:30:01;;;;;;;3.20;3.00;;;;;;;20.23;54.15;101894.13;5014515;28;20527;-48
2022/07/15 11:32:30;;;;;;;5.13;2.53;;;;;;;20.69;53.60;101901.53;5012665;28;20463;-42
2022/07/15 11:35:00;;;;;;;4.07;2.80;;;;;;;20.70;51.10;101898.56;5014337;28;20435;-46
2022/07/15 11:37:28;;;;;;;3.30;3.00;;;;;;;21.07;50.09;101907.28;5014449;28;20896;-44
2022/07/15 11:40:11;;;;;;;2.90;2.70;;;;;;;20.48;49.25;101902.09;5014385;28;20528;-44